Dades meteomassalio
Diari Summary for Febrer 2, 2018 Units:  English    Metric   Both
« Previous Day
Next Day »
Diari Semanal Mensual Anual Personalitzat
  Maxima: Minima: Mijana:
Temperatura: TemperatureC °F 2.8 °F 4.8 °F
Rosada: DewpointC °F -4.3 °F -0.2 °F
Humitat: Humidity % 44 % 71 %
Velocitat del vent: WindSpeedKMH mph 7.4 mph 28.2 mph
Racha vent: WindSpeedGustKMH mph - -
Vent:- - NW
Pressio: PressurehPa in 1010.4 in -
Pluja: 0.0 in    
Historical Graphs
 
 
Tabular Data for Febrer 2, 2018
Time Temperature Dew Point Pressure Wind Wind Speed Wind Gust Humidity Rainfall Rate (Hourly) solar Conditions
TemperatureC °F DewpointC °F PressurehPa in Calm     Humidity % HourlyPrecipMM in SolarRadiationWatts/m^2 W/m2 Conditions
00:04 4.4 °F 0.8 °F 1011.4 in NNW 18.5 mph 18.5 mph 77 % 0.0 in 0.0 W/m2 RA
00:09 4.4 °F 0.8 °F 1011.7 in NNW 18.5 mph 18.5 mph 77 % 0.0 in 0.0 W/m2 CLR
00:14 4.4 °F 0.8 °F 1011.7 in NW 18.5 mph 18.5 mph 77 % 0.0 in 0.0 W/m2 CLR
00:19 4.4 °F 0.8 °F 1011.7 in NNW 16.7 mph 16.7 mph 77 % 0.0 in 0.0 W/m2 CLR
00:24 4.4 °F 0.8 °F 1011.7 in NNW 27.4 mph 27.4 mph 77 % 0.0 in 0.0 W/m2 CLR
00:29 4.4 °F 0.9 °F 1011.7 in NW 22.2 mph 22.2 mph 78 % 0.0 in 0.0 W/m2 CLR
00:34 4.4 °F 0.9 °F 1011.7 in NNW 9.7 mph 9.7 mph 78 % 0.0 in 0.0 W/m2 CLR
00:39 4.4 °F 0.9 °F 1011.4 in NNW 16.7 mph 16.7 mph 78 % 0.0 in 0.0 W/m2 CLR
00:44 4.4 °F 0.9 °F 1011.4 in NW 24.1 mph 24.1 mph 78 % 0.0 in 0.0 W/m2 CLR
00:49 4.4 °F 0.9 °F 1011.4 in NNW 24.1 mph 24.1 mph 78 % 0.0 in 0.0 W/m2 CLR
00:54 3.9 °F 0.4 °F 1011.4 in NW 18.5 mph 18.5 mph 78 % 0.0 in 0.0 W/m2 CLR
00:59 3.9 °F 0.4 °F 1011.4 in NW 18.5 mph 18.5 mph 78 % 0.0 in 0.0 W/m2 CLR
01:04 3.9 °F 0.6 °F 1011.4 in NW 25.9 mph 25.9 mph 79 % 0.0 in 0.0 W/m2 CLR
01:09 3.9 °F 0.4 °F 1011.1 in NW 31.5 mph 31.5 mph 78 % 0.0 in 0.0 W/m2 CLR
01:14 3.9 °F 0.6 °F 1011.1 in NW 27.8 mph 27.8 mph 79 % 0.0 in 0.0 W/m2 CLR
01:19 3.9 °F 0.4 °F 1011.1 in NW 22.2 mph 22.2 mph 78 % 0.0 in 0.0 W/m2 CLR
01:24 3.9 °F 0.4 °F 1011.1 in NW 22.5 mph 22.5 mph 78 % 0.0 in 0.0 W/m2 CLR
01:29 3.9 °F 0.4 °F 1011.1 in NW 29.6 mph 29.6 mph 78 % 0.0 in 0.0 W/m2 CLR
01:34 3.9 °F 0.4 °F 1011.1 in WNW 27.8 mph 27.8 mph 78 % 0.0 in 0.0 W/m2 CLR
01:39 3.9 °F 0.6 °F 1011.1 in NW 14.8 mph 14.8 mph 79 % 0.0 in 0.0 W/m2 CLR
01:44 3.9 °F 0.6 °F 1011.1 in WNW 20.4 mph 20.4 mph 79 % 0.0 in 0.0 W/m2 CLR
01:49 3.9 °F 0.6 °F 1010.7 in NW 24.1 mph 24.1 mph 79 % 0.0 in 0.0 W/m2 CLR
01:54 3.9 °F 0.6 °F 1010.7 in NW 22.2 mph 22.2 mph 79 % 0.0 in 0.0 W/m2 CLR
01:59 3.9 °F 0.6 °F 1011.1 in WNW 14.5 mph 14.5 mph 79 % 0.0 in 0.0 W/m2 CLR
02:04 3.9 °F 0.6 °F 1011.1 in NW 16.7 mph 16.7 mph 79 % 0.0 in 0.0 W/m2 CLR
02:09 3.3 °F 0.1 °F 1010.7 in NW 14.8 mph 14.8 mph 79 % 0.0 in 0.0 W/m2 CLR
02:14 3.3 °F 0.1 °F 1010.7 in West 16.1 mph 16.1 mph 79 % 0.0 in 0.0 W/m2 CLR
02:19 3.3 °F 0.1 °F 1010.7 in WNW 16.7 mph 16.7 mph 79 % 0.0 in 0.0 W/m2 CLR
02:24 3.3 °F 0.2 °F 1011.1 in WNW 13.0 mph 13.0 mph 80 % 0.0 in 0.0 W/m2 CLR
02:29 3.3 °F 0.2 °F 1011.1 in WNW 19.3 mph 19.3 mph 80 % 0.0 in 0.0 W/m2 CLR
02:34 3.3 °F 0.2 °F 1011.1 in NW 16.7 mph 16.7 mph 80 % 0.0 in 0.0 W/m2 CLR
02:39 3.3 °F 0.2 °F 1011.1 in NW 16.7 mph 16.7 mph 80 % 0.0 in 0.0 W/m2 CLR
02:44 3.3 °F 0.2 °F 1011.1 in NW 14.8 mph 14.8 mph 80 % 0.0 in 0.0 W/m2 CLR
02:49 3.3 °F 0.2 °F 1011.1 in WNW 18.5 mph 18.5 mph 80 % 0.0 in 0.0 W/m2 CLR
02:54 3.3 °F 0.2 °F 1011.1 in NW 22.2 mph 22.2 mph 80 % 0.0 in 0.0 W/m2 CLR
02:59 3.3 °F 0.4 °F 1011.1 in NW 16.7 mph 16.7 mph 81 % 0.0 in 0.0 W/m2 CLR
03:04 3.3 °F 0.4 °F 1011.1 in NW 20.4 mph 20.4 mph 81 % 0.0 in 0.0 W/m2 CLR
03:09 3.3 °F 0.4 °F 1011.1 in NW 20.4 mph 20.4 mph 81 % 0.0 in 0.0 W/m2 CLR
03:14 3.3 °F 0.4 °F 1011.1 in NW 22.5 mph 22.5 mph 81 % 0.0 in 0.0 W/m2 CLR
03:19 3.3 °F 0.4 °F 1011.1 in NW 16.7 mph 16.7 mph 81 % 0.0 in 0.0 W/m2 CLR
03:24 3.3 °F 0.4 °F 1011.1 in NW 14.8 mph 14.8 mph 81 % 0.0 in 0.0 W/m2 CLR
03:29 3.3 °F 0.4 °F 1011.1 in WNW 14.8 mph 14.8 mph 81 % 0.0 in 0.0 W/m2 CLR
03:34 3.3 °F 0.4 °F 1011.1 in NW 16.7 mph 16.7 mph 81 % 0.0 in 0.0 W/m2 CLR
03:39 3.3 °F 0.4 °F 1010.7 in NNW 19.3 mph 19.3 mph 81 % 0.0 in 0.0 W/m2 CLR
03:45 3.3 °F 0.4 °F 1010.7 in NW 20.4 mph 20.4 mph 81 % 0.0 in 0.0 W/m2 CLR
03:50 3.3 °F 0.6 °F 1011.1 in NW 11.3 mph 11.3 mph 82 % 0.0 in 0.0 W/m2 CLR
03:55 3.3 °F 0.6 °F 1011.1 in NNW 20.4 mph 20.4 mph 82 % 0.0 in 0.0 W/m2 CLR
04:00 3.3 °F 0.6 °F 1011.1 in WNW 14.8 mph 14.8 mph 82 % 0.0 in 0.0 W/m2 CLR
04:05 3.3 °F 0.6 °F 1010.7 in NW 16.7 mph 16.7 mph 82 % 0.0 in 0.0 W/m2 CLR
04:10 3.3 °F 0.6 °F 1011.1 in NW 18.5 mph 18.5 mph 82 % 0.0 in 0.0 W/m2 CLR
04:15 3.3 °F 0.6 °F 1010.7 in NW 17.7 mph 17.7 mph 82 % 0.0 in 0.0 W/m2 CLR
04:20 3.3 °F 0.6 °F 1010.7 in NNW 16.7 mph 16.7 mph 82 % 0.0 in 0.0 W/m2 CLR
04:25 3.3 °F 0.7 °F 1010.7 in NNW 18.5 mph 18.5 mph 83 % 0.0 in 0.0 W/m2 CLR
04:30 3.3 °F 0.7 °F 1010.7 in NW 17.7 mph 17.7 mph 83 % 0.0 in 0.0 W/m2 CLR
04:35 3.3 °F 0.7 °F 1010.7 in NW 16.7 mph 16.7 mph 83 % 0.0 in 0.0 W/m2 CLR
04:40 3.3 °F 0.7 °F 1010.7 in NW 14.8 mph 14.8 mph 83 % 0.0 in 0.0 W/m2 CLR
04:45 3.3 °F 0.7 °F 1010.7 in North 18.5 mph 18.5 mph 83 % 0.0 in 0.0 W/m2 CLR
04:50 3.3 °F 0.9 °F 1010.4 in NW 14.8 mph 14.8 mph 84 % 0.0 in 0.0 W/m2 CLR
04:55 3.3 °F 0.9 °F 1010.4 in NW 17.7 mph 17.7 mph 84 % 0.0 in 0.0 W/m2 CLR
05:00 3.3 °F 0.9 °F 1010.4 in NW 14.8 mph 14.8 mph 84 % 0.0 in 0.0 W/m2 CLR
05:05 3.3 °F 0.9 °F 1010.4 in NNW 14.8 mph 14.8 mph 84 % 0.0 in 0.0 W/m2 CLR
05:10 2.8 °F 0.3 °F 1010.4 in NW 18.5 mph 18.5 mph 84 % 0.0 in 0.0 W/m2 CLR
05:15 2.8 °F 0.5 °F 1010.4 in NW 13.0 mph 13.0 mph 85 % 0.0 in 0.0 W/m2 CLR
05:20 2.8 °F 0.3 °F 1010.4 in NW 14.8 mph 14.8 mph 84 % 0.0 in 0.0 W/m2 CLR
05:25 2.8 °F 0.5 °F 1010.4 in NNW 14.8 mph 14.8 mph 85 % 0.0 in 0.0 W/m2 CLR
05:30 2.8 °F 0.5 °F 1010.4 in NW 14.8 mph 14.8 mph 85 % 0.0 in 0.0 W/m2 CLR
05:35 2.8 °F 0.5 °F 1010.4 in NW 16.7 mph 16.7 mph 85 % 0.0 in 0.0 W/m2 CLR
05:40 3.3 °F 1.1 °F 1010.4 in NNW 20.9 mph 20.9 mph 85 % 0.0 in 0.0 W/m2 CLR
05:45 3.3 °F 1.1 °F 1010.4 in NNW 24.1 mph 24.1 mph 85 % 0.0 in 0.0 W/m2 CLR
05:50 3.3 °F 1.1 °F 1010.4 in NW 18.5 mph 18.5 mph 85 % 0.0 in 0.0 W/m2 CLR
05:55 3.3 °F 1.1 °F 1010.4 in NW 20.4 mph 20.4 mph 85 % 0.0 in 0.0 W/m2 CLR
06:00 3.3 °F 1.1 °F 1010.4 in NW 14.8 mph 14.8 mph 85 % 0.0 in 0.0 W/m2 CLR
06:05 3.3 °F 1.1 °F 1010.4 in NW 16.1 mph 16.1 mph 85 % 0.0 in 0.0 W/m2 CLR
06:10 3.3 °F 1.1 °F 1010.4 in NW 14.8 mph 14.8 mph 85 % 0.0 in 0.0 W/m2 CLR
06:15 2.8 °F 0.5 °F 1010.4 in NNW 18.5 mph 18.5 mph 85 % 0.0 in 0.0 W/m2 CLR
06:20 2.8 °F 0.5 °F 1010.4 in NNW 18.5 mph 18.5 mph 85 % 0.0 in 0.0 W/m2 CLR
06:25 2.8 °F 0.5 °F 1010.4 in NW 14.8 mph 14.8 mph 85 % 0.0 in 0.0 W/m2 CLR
06:30 2.8 °F 0.5 °F 1010.7 in NW 9.7 mph 9.7 mph 85 % 0.0 in 0.0 W/m2 CLR
06:35 2.8 °F 0.5 °F 1010.7 in North 20.4 mph 20.4 mph 85 % 0.0 in 0.0 W/m2 CLR
06:40 3.3 °F 1.1 °F 1010.7 in NW 7.4 mph 7.4 mph 85 % 0.0 in 0.0 W/m2 CLR
06:45 3.3 °F 1.1 °F 1010.7 in NW 16.7 mph 16.7 mph 85 % 0.0 in 0.0 W/m2 CLR
06:50 3.3 °F 1.1 °F 1010.7 in NNW 9.7 mph 9.7 mph 85 % 0.0 in 0.0 W/m2 CLR
06:55 3.3 °F 1.1 °F 1010.7 in NW 9.3 mph 9.3 mph 85 % 0.0 in 0.0 W/m2 CLR
07:00 3.3 °F 1.1 °F 1010.7 in NW 14.8 mph 14.8 mph 85 % 0.0 in 0.0 W/m2 CLR
07:05 3.3 °F 1.1 °F 1010.7 in NW 16.7 mph 16.7 mph 85 % 0.0 in 0.0 W/m2 CLR
07:10 3.3 °F 1.1 °F 1010.7 in NW 16.7 mph 16.7 mph 85 % 0.0 in 0.0 W/m2 CLR
07:15 3.3 °F 1.1 °F 1010.7 in NNW 14.8 mph 14.8 mph 85 % 0.0 in 0.0 W/m2 CLR
07:20 3.3 °F 1.1 °F 1011.1 in WNW 18.5 mph 18.5 mph 85 % 0.0 in 0.0 W/m2 CLR
07:25 3.3 °F 1.1 °F 1011.1 in NW 20.4 mph 20.4 mph 85 % 0.0 in 0.0 W/m2 CLR
07:30 3.3 °F 1.1 °F 1011.1 in NW 19.3 mph 19.3 mph 85 % 0.0 in 0.0 W/m2 CLR
07:35 2.8 °F 0.5 °F 1011.1 in NNW 24.1 mph 24.1 mph 85 % 0.0 in 0.0 W/m2 CLR
07:40 2.8 °F 0.7 °F 1011.1 in NW 22.2 mph 22.2 mph 86 % 0.0 in 0.0 W/m2 CLR
07:45 2.8 °F 0.7 °F 1011.1 in NW 24.1 mph 24.1 mph 86 % 0.0 in 0.0 W/m2 CLR
07:50 2.8 °F 0.7 °F 1011.1 in NNW 29.6 mph 29.6 mph 86 % 0.0 in 0.0 W/m2 CLR
07:55 2.8 °F 0.7 °F 1011.1 in NNW 22.2 mph 22.2 mph 86 % 0.0 in 0.0 W/m2 CLR
08:00 2.8 °F 0.7 °F 1010.7 in NNW 29.6 mph 29.6 mph 86 % 0.0 in 0.0 W/m2 OVC
08:05 2.8 °F 0.7 °F 1011.1 in NNW 24.1 mph 24.1 mph 86 % 0.0 in 0.0 W/m2 OVC
08:10 2.8 °F 0.7 °F 1011.1 in NNW 31.5 mph 31.5 mph 86 % 0.0 in 0.0 W/m2 OVC
08:15 2.8 °F 0.7 °F 1011.1 in NW 25.9 mph 25.9 mph 86 % 0.0 in 0.0 W/m2 OVC
08:20 2.8 °F 0.7 °F 1011.1 in NNW 29.6 mph 29.6 mph 86 % 0.0 in 5.0 W/m2 OVC
08:25 2.8 °F 0.8 °F 1011.1 in NNW 20.9 mph 20.9 mph 87 % 0.0 in 7.0 W/m2 BKN
08:30 2.8 °F 0.8 °F 1011.1 in NNW 20.9 mph 20.9 mph 87 % 0.0 in 9.0 W/m2 BKN
08:35 2.8 °F 0.8 °F 1011.1 in NNW 22.2 mph 22.2 mph 87 % 0.0 in 14.0 W/m2 BKN
08:40 2.8 °F 0.8 °F 1011.1 in NW 22.2 mph 22.2 mph 87 % 0.0 in 19.0 W/m2 BKN
08:45 2.8 °F 0.8 °F 1011.4 in NW 17.7 mph 17.7 mph 87 % 0.0 in 25.0 W/m2 BKN
08:50 2.8 °F 0.8 °F 1011.4 in WNW 29.6 mph 29.6 mph 87 % 0.0 in 30.0 W/m2 BKN
08:55 2.8 °F 0.7 °F 1011.4 in North 20.9 mph 20.9 mph 86 % 0.0 in 30.0 W/m2 BKN
09:00 2.8 °F 0.7 °F 1011.4 in NW 24.1 mph 24.1 mph 86 % 0.0 in 32.0 W/m2 BKN
09:05 2.8 °F 0.7 °F 1011.7 in West 20.9 mph 20.9 mph 86 % 0.0 in 32.0 W/m2 BKN
09:10 2.8 °F 0.7 °F 1011.7 in NW 18.5 mph 18.5 mph 86 % 0.0 in 33.0 W/m2 BKN
09:15 2.8 °F 0.7 °F 1011.7 in NW 16.7 mph 16.7 mph 86 % 0.0 in 37.0 W/m2 BKN
09:20 2.8 °F 0.7 °F 1011.7 in NW 18.5 mph 18.5 mph 86 % 0.0 in 42.0 W/m2 BKN
09:25 2.8 °F 0.5 °F 1011.7 in NW 7.4 mph 7.4 mph 85 % 0.0 in 42.0 W/m2 BKN
09:30 2.8 °F 0.5 °F 1012.1 in NNW 16.7 mph 16.7 mph 85 % 0.0 in 49.0 W/m2 BKN
09:36 3.3 °F 0.9 °F 1011.7 in NNW 22.2 mph 22.2 mph 84 % 0.0 in 54.0 W/m2 SCT
09:41 3.3 °F 0.9 °F 1012.1 in WNW 14.8 mph 14.8 mph 84 % 0.0 in 53.0 W/m2 SCT
09:46 3.3 °F 0.9 °F 1011.7 in NW 20.4 mph 20.4 mph 84 % 0.0 in 62.0 W/m2 SCT
09:51 3.3 °F 0.9 °F 1011.7 in NW 18.5 mph 18.5 mph 84 % 0.0 in 67.0 W/m2 SCT
09:56 3.3 °F 0.9 °F 1012.1 in NNW 18.5 mph 18.5 mph 84 % 0.0 in 77.0 W/m2 FEW
10:01 3.3 °F 0.9 °F 1012.1 in NW 16.7 mph 16.7 mph 84 % 0.0 in 84.0 W/m2 FEW
10:06 3.3 °F 0.7 °F 1012.1 in NNW 16.7 mph 16.7 mph 83 % 0.0 in 91.0 W/m2 FEW
10:11 3.3 °F 0.7 °F 1012.1 in NW 18.5 mph 18.5 mph 83 % 0.0 in 120.0 W/m2 CLR
10:16 3.3 °F 0.7 °F 1012.1 in NNW 22.2 mph 22.2 mph 83 % 0.0 in 127.0 W/m2 CLR
10:21 3.3 °F 0.7 °F 1012.1 in NW 18.5 mph 18.5 mph 83 % 0.0 in 204.0 W/m2 CLR
10:26 3.9 °F 1.3 °F 1011.7 in NW 14.5 mph 14.5 mph 83 % 0.0 in 155.0 W/m2 CLR
10:31 3.9 °F 1.1 °F 1011.7 in NW 24.1 mph 24.1 mph 82 % 0.0 in 118.0 W/m2 CLR
10:36 3.9 °F 0.9 °F 1011.7 in NW 20.4 mph 20.4 mph 81 % 0.0 in 163.0 W/m2 CLR
10:41 3.9 °F 0.9 °F 1011.7 in NNW 25.9 mph 25.9 mph 81 % 0.0 in 144.0 W/m2 CLR
10:46 3.9 °F 0.9 °F 1011.7 in NW 29.6 mph 29.6 mph 81 % 0.0 in 158.0 W/m2 CLR
10:51 3.9 °F 0.9 °F 1011.7 in NW 24.1 mph 24.1 mph 81 % 0.0 in 167.0 W/m2 CLR
10:56 3.9 °F 0.8 °F 1011.7 in NW 29.6 mph 29.6 mph 80 % 0.0 in 142.0 W/m2 CLR
11:01 4.4 °F 1.3 °F 1011.7 in NNW 25.9 mph 25.9 mph 80 % 0.0 in 165.0 W/m2 CLR
11:06 4.4 °F 1.1 °F 1012.1 in NNW 27.8 mph 27.8 mph 79 % 0.0 in 149.0 W/m2 CLR
11:11 4.4 °F 1.1 °F 1012.1 in NW 31.5 mph 31.5 mph 79 % 0.0 in 171.0 W/m2 CLR
11:16 4.4 °F 1.1 °F 1012.1 in NNW 25.9 mph 25.9 mph 79 % 0.0 in 188.0 W/m2 CLR
11:21 4.4 °F 1.1 °F 1012.1 in NNW 35.2 mph 35.2 mph 79 % 0.0 in 295.0 W/m2 CLR
11:26 4.4 °F 1.1 °F 1012.1 in NW 42.6 mph 42.6 mph 79 % 0.0 in 199.0 W/m2 CLR
11:31 4.4 °F 0.9 °F 1012.4 in North 32.2 mph 32.2 mph 78 % 0.0 in 193.0 W/m2 CLR
11:36 4.4 °F 1.1 °F 1012.1 in NNW 24.1 mph 24.1 mph 79 % 0.0 in 209.0 W/m2 CLR
11:41 5.0 °F 1.5 °F 1012.1 in NNW 29.6 mph 29.6 mph 78 % 0.0 in 195.0 W/m2 CLR
11:46 5.0 °F 1.5 °F 1012.1 in North 33.8 mph 33.8 mph 78 % 0.0 in 181.0 W/m2 CLR
11:51 5.0 °F 1.3 °F 1012.1 in North 37.0 mph 37.0 mph 77 % 0.0 in 415.0 W/m2 CLR
11:56 5.6 °F 1.7 °F 1012.1 in NNW 33.3 mph 33.3 mph 76 % 0.0 in 269.0 W/m2 CLR
12:01 5.6 °F 1.7 °F 1012.1 in North 25.9 mph 25.9 mph 76 % 0.0 in 332.0 W/m2 CLR
12:06 6.1 °F 2.0 °F 1012.1 in NW 33.3 mph 33.3 mph 75 % 0.0 in 406.0 W/m2 CLR
12:11 6.1 °F 2.2 °F 1012.1 in NNW 37.0 mph 37.0 mph 76 % 0.0 in 480.0 W/m2 CLR
12:16 6.1 °F 2.0 °F 1012.1 in North 38.6 mph 38.6 mph 75 % 0.0 in 445.0 W/m2 CLR
12:21 6.7 °F 2.2 °F 1012.1 in North 31.5 mph 31.5 mph 73 % 0.0 in 527.0 W/m2 CLR
12:26 6.7 °F 2.3 °F 1012.1 in North 29.6 mph 29.6 mph 74 % 0.0 in 512.0 W/m2 CLR
12:31 6.7 °F 2.2 °F 1011.7 in NNW 33.3 mph 33.3 mph 73 % 0.0 in 434.0 W/m2 CLR
12:36 7.2 °F 2.5 °F 1011.7 in NNW 37.0 mph 37.0 mph 72 % 0.0 in 397.0 W/m2 CLR
12:41 7.2 °F 2.5 °F 1011.7 in NNW 40.7 mph 40.7 mph 72 % 0.0 in 387.0 W/m2 CLR
12:46 7.2 °F 2.5 °F 1011.7 in NNW 40.7 mph 40.7 mph 72 % 0.0 in 359.0 W/m2 CLR
12:51 6.7 °F 1.6 °F 1011.7 in North 42.6 mph 42.6 mph 70 % 0.0 in 366.0 W/m2 CLR
12:56 6.7 °F 1.6 °F 1011.7 in NNW 42.6 mph 42.6 mph 70 % 0.0 in 429.0 W/m2 CLR
13:01 7.2 °F 2.1 °F 1011.4 in North 38.9 mph 38.9 mph 70 % 0.0 in 612.0 W/m2 CLR
13:06 7.8 °F 2.7 °F 1011.4 in NNW 37.0 mph 37.0 mph 70 % 0.0 in 580.0 W/m2 CLR
13:11 7.8 °F 2.2 °F 1011.4 in North 43.4 mph 43.4 mph 68 % 0.0 in 506.0 W/m2 CLR
13:16 7.8 °F 2.2 °F 1011.4 in NNW 42.6 mph 42.6 mph 68 % 0.0 in 445.0 W/m2 CLR
13:21 8.3 °F 2.8 °F 1011.4 in North 37.0 mph 37.0 mph 68 % 0.0 in 381.0 W/m2 CLR
13:26 8.3 °F 2.6 °F 1011.4 in North 48.3 mph 48.3 mph 67 % 0.0 in 468.0 W/m2 CLR
13:31 8.3 °F 2.1 °F 1011.4 in North 33.3 mph 33.3 mph 65 % 0.0 in 561.0 W/m2 CLR
13:36 8.3 °F 1.7 °F 1011.4 in North 40.7 mph 40.7 mph 63 % 0.0 in 504.0 W/m2 CLR
13:41 8.3 °F 1.4 °F 1011.4 in NNW 37.0 mph 37.0 mph 62 % 0.0 in 448.0 W/m2 CLR
13:46 8.3 °F 1.7 °F 1011.1 in NNW 38.6 mph 38.6 mph 63 % 0.0 in 425.0 W/m2 CLR
13:51 8.3 °F 1.4 °F 1011.1 in North 38.9 mph 38.9 mph 62 % 0.0 in 471.0 W/m2 CLR
13:56 8.3 °F 1.0 °F 1011.1 in North 37.0 mph 37.0 mph 60 % 0.0 in 464.0 W/m2 CLR
14:01 8.9 °F 1.6 °F 1011.1 in NNW 48.1 mph 48.1 mph 60 % 0.0 in 559.0 W/m2 CLR
14:06 8.9 °F 1.3 °F 1011.1 in NNW 48.1 mph 48.1 mph 59 % 0.0 in 533.0 W/m2 CLR
14:11 8.9 °F 1.3 °F 1011.1 in NNW 38.9 mph 38.9 mph 59 % 0.0 in 524.0 W/m2 CLR
14:16 9.4 °F 1.6 °F 1011.1 in North 42.6 mph 42.6 mph 58 % 0.0 in 520.0 W/m2 CLR
14:21 8.9 °F 1.1 °F 1011.1 in NNW 33.8 mph 33.8 mph 58 % 0.0 in 517.0 W/m2 CLR
14:26 8.9 °F 0.6 °F 1010.7 in NNW 33.3 mph 33.3 mph 56 % 0.0 in 513.0 W/m2 CLR
14:31 9.4 °F 0.6 °F 1011.1 in North 40.2 mph 40.2 mph 54 % 0.0 in 406.0 W/m2 CLR
14:36 9.4 °F 0.6 °F 1011.1 in NNW 38.9 mph 38.9 mph 54 % 0.0 in 501.0 W/m2 CLR
14:41 9.4 °F 0.3 °F 1011.1 in North 32.2 mph 32.2 mph 53 % 0.0 in 492.0 W/m2 CLR
14:46 10.0 °F 0.3 °F 1010.7 in North 46.3 mph 46.3 mph 51 % 0.0 in 483.0 W/m2 CLR
14:51 9.4 °F -0.2 °F 1010.7 in NNW 46.3 mph 46.3 mph 51 % 0.0 in 476.0 W/m2 CLR
14:56 10.0 °F -0.2 °F 1010.7 in North 35.2 mph 35.2 mph 49 % 0.0 in 464.0 W/m2 CLR
15:01 10.0 °F 0.3 °F 1010.7 in NNW 42.6 mph 42.6 mph 51 % 0.0 in 457.0 W/m2 CLR
15:06 9.4 °F -1.1 °F 1010.7 in NNW 40.7 mph 40.7 mph 48 % 0.0 in 448.0 W/m2 CLR
15:11 9.4 °F -1.1 °F 1010.7 in North 37.0 mph 37.0 mph 48 % 0.0 in 441.0 W/m2 CLR
15:16 10.0 °F -0.2 °F 1010.7 in WNW 33.8 mph 33.8 mph 49 % 0.0 in 429.0 W/m2 CLR
15:21 10.0 °F -0.8 °F 1010.7 in North 32.2 mph 32.2 mph 47 % 0.0 in 422.0 W/m2 CLR
15:26 9.4 °F -1.3 °F 1010.7 in NNW 42.6 mph 42.6 mph 47 % 0.0 in 411.0 W/m2 CLR
15:31 9.4 °F -1.3 °F 1010.7 in North 37.0 mph 37.0 mph 47 % 0.0 in 401.0 W/m2 CLR
15:36 10.0 °F -1.4 °F 1010.7 in North 37.0 mph 37.0 mph 45 % 0.0 in 392.0 W/m2 CLR
15:41 9.4 °F -2.2 °F 1011.1 in NNW 55.5 mph 55.5 mph 44 % 0.0 in 378.0 W/m2 CLR
15:46 9.4 °F -1.9 °F 1011.1 in NNW 46.3 mph 46.3 mph 45 % 0.0 in 367.0 W/m2 CLR
15:51 9.4 °F -1.6 °F 1011.1 in North 51.8 mph 51.8 mph 46 % 0.0 in 359.0 W/m2 CLR
15:56 9.4 °F -1.9 °F 1011.1 in NNW 53.7 mph 53.7 mph 45 % 0.0 in 346.0 W/m2 CLR
16:01 9.4 °F -1.6 °F 1011.1 in NNW 42.6 mph 42.6 mph 46 % 0.0 in 334.0 W/m2 CLR
16:06 9.4 °F -1.3 °F 1011.1 in NNW 42.6 mph 42.6 mph 47 % 0.0 in 322.0 W/m2 CLR
16:11 8.9 °F -2.4 °F 1011.1 in North 42.6 mph 42.6 mph 45 % 0.0 in 308.0 W/m2 CLR
16:16 8.9 °F -2.4 °F 1011.1 in NW 40.7 mph 40.7 mph 45 % 0.0 in 297.0 W/m2 CLR
16:21 8.9 °F -2.4 °F 1011.4 in North 42.6 mph 42.6 mph 45 % 0.0 in 285.0 W/m2 CLR
16:26 8.9 °F -2.7 °F 1011.4 in North 53.7 mph 53.7 mph 44 % 0.0 in 267.0 W/m2 CLR
16:31 8.9 °F -2.4 °F 1011.4 in North 46.3 mph 46.3 mph 45 % 0.0 in 251.0 W/m2 CLR
16:36 8.3 °F -2.9 °F 1011.7 in North 48.1 mph 48.1 mph 45 % 0.0 in 237.0 W/m2 CLR
16:41 8.3 °F -2.6 °F 1011.7 in NNW 44.4 mph 44.4 mph 46 % 0.0 in 221.0 W/m2 CLR
16:46 8.3 °F -2.9 °F 1011.7 in North 51.8 mph 51.8 mph 45 % 0.0 in 202.0 W/m2 CLR
16:51 8.3 °F -2.6 °F 1011.7 in NNW 43.4 mph 43.4 mph 46 % 0.0 in 186.0 W/m2 CLR
16:56 8.3 °F -2.6 °F 1011.7 in NNW 51.8 mph 51.8 mph 46 % 0.0 in 171.0 W/m2 CLR
17:01 7.8 °F -3.1 °F 1011.7 in NNW 55.5 mph 55.5 mph 46 % 0.0 in 153.0 W/m2 CLR
17:06 7.8 °F -3.1 °F 1011.7 in NNW 50.0 mph 50.0 mph 46 % 0.0 in 135.0 W/m2 CLR
17:11 7.8 °F -2.8 °F 1011.7 in North 40.2 mph 40.2 mph 47 % 0.0 in 120.0 W/m2 CLR
17:16 7.8 °F -3.4 °F 1011.7 in North 46.3 mph 46.3 mph 45 % 0.0 in 105.0 W/m2 CLR
17:17 7.8 °F -3.1 °F 1011.7 in NNW 42.6 mph 42.6 mph 46 % 0.0 in 102.0 W/m2 CLR
17:22 7.8 °F -3.1 °F 1011.7 in North 42.6 mph 42.6 mph 46 % 0.0 in 88.0 W/m2 CLR
17:27 7.2 °F -3.3 °F 1011.7 in NNW 41.8 mph 41.8 mph 47 % 0.0 in 72.0 W/m2 FEW
17:32 7.2 °F -3.7 °F 1012.1 in NNW 44.4 mph 44.4 mph 46 % 0.0 in 56.0 W/m2 SCT
17:37 7.2 °F -3.3 °F 1011.7 in NW 42.6 mph 42.6 mph 47 % 0.0 in 42.0 W/m2 SCT
17:42 7.2 °F -3.3 °F 1012.1 in NW 40.7 mph 40.7 mph 47 % 0.0 in 35.0 W/m2 BKN
17:47 7.2 °F -3.3 °F 1012.1 in NNW 31.5 mph 31.5 mph 47 % 0.0 in 26.0 W/m2 BKN
17:52 6.7 °F -3.6 °F 1012.1 in NNW 35.2 mph 35.2 mph 48 % 0.0 in 19.0 W/m2 BKN
17:57 6.7 °F -3.6 °F 1012.1 in North 37.0 mph 37.0 mph 48 % 0.0 in 14.0 W/m2 BKN
18:02 6.7 °F -3.6 °F 1012.1 in North 33.8 mph 33.8 mph 48 % 0.0 in 12.0 W/m2 BKN
18:07 6.7 °F -3.3 °F 1012.4 in North 31.5 mph 31.5 mph 49 % 0.0 in 9.0 W/m2 BKN
18:12 6.1 °F -3.8 °F 1012.4 in NW 30.6 mph 30.6 mph 49 % 0.0 in 7.0 W/m2 BKN
18:17 6.1 °F -3.8 °F 1012.8 in North 35.4 mph 35.4 mph 49 % 0.0 in 5.0 W/m2 OVC
18:22 6.1 °F -4.1 °F 1012.8 in North 31.5 mph 31.5 mph 48 % 0.0 in 0.0 W/m2 OVC
18:27 6.1 °F -4.1 °F 1012.8 in NNW 29.6 mph 29.6 mph 48 % 0.0 in 0.0 W/m2 CLR
18:32 6.1 °F -3.8 °F 1013.1 in North 33.3 mph 33.3 mph 49 % 0.0 in 0.0 W/m2 CLR
18:37 5.6 °F -4.3 °F 1013.1 in NNW 31.5 mph 31.5 mph 49 % 0.0 in 0.0 W/m2 CLR
18:42 5.6 °F -4.3 °F 1013.1 in North 35.2 mph 35.2 mph 49 % 0.0 in 0.0 W/m2 CLR
18:47 5.6 °F -4.1 °F 1013.4 in NNW 24.1 mph 24.1 mph 50 % 0.0 in 0.0 W/m2 CLR
18:52 5.6 °F -4.1 °F 1013.4 in North 31.5 mph 31.5 mph 50 % 0.0 in 0.0 W/m2 CLR
18:58 5.6 °F -4.3 °F 1013.8 in NW 33.3 mph 33.3 mph 49 % 0.0 in 0.0 W/m2 CLR
19:03 5.6 °F -4.1 °F 1013.8 in NNW 29.6 mph 29.6 mph 50 % 0.0 in 0.0 W/m2 CLR
19:08 5.6 °F -4.1 °F 1013.8 in NW 31.5 mph 31.5 mph 50 % 0.0 in 0.0 W/m2 CLR
19:13 5.6 °F -4.1 °F 1014.1 in NNW 24.1 mph 24.1 mph 50 % 0.0 in 0.0 W/m2 CLR
19:18 5.6 °F -4.1 °F 1014.1 in North 32.2 mph 32.2 mph 50 % 0.0 in 0.0 W/m2 CLR
19:23 5.6 °F -4.1 °F 1014.1 in North 38.9 mph 38.9 mph 50 % 0.0 in 0.0 W/m2 CLR
19:28 5.6 °F -3.8 °F 1014.1 in North 48.3 mph 48.3 mph 51 % 0.0 in 0.0 W/m2 CLR
19:33 5.6 °F -3.6 °F 1014.4 in NNW 44.4 mph 44.4 mph 52 % 0.0 in 0.0 W/m2 CLR
19:38 5.0 °F -3.8 °F 1014.4 in NNW 37.0 mph 37.0 mph 53 % 0.0 in 0.0 W/m2 CLR
19:43 5.0 °F -3.3 °F 1014.8 in NNW 38.6 mph 38.6 mph 55 % 0.0 in 0.0 W/m2 CLR
19:48 5.0 °F -3.1 °F 1014.8 in NNW 44.4 mph 44.4 mph 56 % 0.0 in 0.0 W/m2 CLR
19:53 5.0 °F -2.8 °F 1014.8 in NNW 29.6 mph 29.6 mph 57 % 0.0 in 0.0 W/m2 CLR
19:58 5.0 °F -2.3 °F 1014.8 in NNW 33.3 mph 33.3 mph 59 % 0.0 in 0.0 W/m2 CLR
20:03 5.0 °F -2.1 °F 1014.8 in North 22.5 mph 22.5 mph 60 % 0.0 in 0.0 W/m2 CLR
20:08 4.4 °F -2.0 °F 1015.1 in NNW 35.2 mph 35.2 mph 63 % 0.0 in 0.0 W/m2 CLR
20:13 4.4 °F -1.8 °F 1015.1 in NNW 29.0 mph 29.0 mph 64 % 0.0 in 0.0 W/m2 CLR
20:18 4.4 °F -1.3 °F 1015.1 in NW 33.3 mph 33.3 mph 66 % 0.0 in 0.0 W/m2 CLR
20:23 4.4 °F -1.2 °F 1015.5 in NNW 27.8 mph 27.8 mph 67 % 0.0 in 0.0 W/m2 CLR
20:28 4.4 °F -1.2 °F 1015.5 in NNW 31.5 mph 31.5 mph 67 % 0.0 in 0.0 W/m2 CLR
20:33 4.4 °F -1.2 °F 1015.5 in NNW 33.8 mph 33.8 mph 67 % 0.0 in 0.0 W/m2 CLR
20:38 3.9 °F -1.5 °F 1015.5 in NNW 32.2 mph 32.2 mph 68 % 0.0 in 0.0 W/m2 CLR
20:43 3.9 °F -1.5 °F 1015.1 in NW 38.9 mph 38.9 mph 68 % 0.0 in 0.0 W/m2 CLR
20:48 3.9 °F -1.3 °F 1015.5 in NW 35.2 mph 35.2 mph 69 % 0.0 in 0.0 W/m2 CLR
20:53 3.9 °F -1.3 °F 1015.5 in NNW 31.5 mph 31.5 mph 69 % 0.0 in 0.0 W/m2 CLR
20:58 3.9 °F -1.3 °F 1015.5 in NNW 37.0 mph 37.0 mph 69 % 0.0 in 0.0 W/m2 CLR
21:03 3.9 °F -1.1 °F 1015.5 in North 29.6 mph 29.6 mph 70 % 0.0 in 0.0 W/m2 CLR
21:08 3.9 °F -1.1 °F 1015.8 in NW 29.6 mph 29.6 mph 70 % 0.0 in 0.0 W/m2 CLR
21:13 3.9 °F -1.1 °F 1015.8 in NNW 25.9 mph 25.9 mph 70 % 0.0 in 0.0 W/m2 CLR
21:18 3.9 °F -1.1 °F 1015.8 in North 24.1 mph 24.1 mph 70 % 0.0 in 0.0 W/m2 CLR
21:21 3.3 °F -1.6 °F 1015.8 in NW 29.6 mph 29.6 mph 70 % 0.0 in 0.0 W/m2 CLR
21:26 3.3 °F -1.6 °F 1015.8 in North 29.6 mph 29.6 mph 70 % 0.0 in 0.0 W/m2 CLR
21:31 3.3 °F -1.6 °F 1015.8 in North 30.6 mph 30.6 mph 70 % 0.0 in 0.0 W/m2 CLR
21:36 3.3 °F -1.4 °F 1016.1 in NNW 25.9 mph 25.9 mph 71 % 0.0 in 0.0 W/m2 CLR
21:41 3.3 °F -1.4 °F 1016.1 in NW 33.3 mph 33.3 mph 71 % 0.0 in 0.0 W/m2 CLR
21:46 3.3 °F -1.4 °F 1016.1 in NNW 35.4 mph 35.4 mph 71 % 0.0 in 0.0 W/m2 CLR
21:51 3.3 °F -1.2 °F 1016.1 in NNW 27.8 mph 27.8 mph 72 % 0.0 in 0.0 W/m2 CLR
21:56 3.3 °F -1.1 °F 1016.1 in NNW 35.2 mph 35.2 mph 73 % 0.0 in 0.0 W/m2 CLR
22:01 3.3 °F -1.1 °F 1016.5 in NNW 29.6 mph 29.6 mph 73 % 0.0 in 0.0 W/m2 CLR
22:06 3.3 °F -0.9 °F 1016.5 in NNW 31.5 mph 31.5 mph 74 % 0.0 in 0.0 W/m2 CLR
22:11 3.3 °F -0.9 °F 1016.5 in NNW 27.8 mph 27.8 mph 74 % 0.0 in 0.0 W/m2 CLR
22:16 2.8 °F -1.2 °F 1016.5 in NNW 37.0 mph 37.0 mph 75 % 0.0 in 0.0 W/m2 CLR
22:21 2.8 °F -1.1 °F 1016.5 in NNW 35.4 mph 35.4 mph 76 % 0.0 in 0.0 W/m2 CLR
22:26 2.8 °F -1.1 °F 1016.8 in NW 31.5 mph 31.5 mph 76 % 0.0 in 0.0 W/m2 CLR
22:31 2.8 °F -1.1 °F 1016.8 in NNW 31.5 mph 31.5 mph 76 % 0.0 in 0.0 W/m2 CLR
22:36 2.8 °F -0.8 °F 1016.8 in NNW 37.0 mph 37.0 mph 77 % 0.0 in 0.0 W/m2 CLR
22:41 2.8 °F -0.8 °F 1016.5 in NNW 31.5 mph 31.5 mph 77 % 0.0 in 0.0 W/m2 CLR
22:46 2.8 °F -0.8 °F 1016.5 in NW 31.5 mph 31.5 mph 77 % 0.0 in 0.0 W/m2 CLR
22:51 2.8 °F -0.8 °F 1016.8 in NNW 31.5 mph 31.5 mph 77 % 0.0 in 0.0 W/m2 CLR
22:56 2.8 °F -0.8 °F 1016.8 in NNW 29.6 mph 29.6 mph 77 % 0.0 in 0.0 W/m2 CLR
23:01 2.8 °F -0.8 °F 1016.8 in NNW 24.1 mph 24.1 mph 77 % 0.0 in 0.0 W/m2 CLR
23:06 2.8 °F -0.8 °F 1016.8 in NNW 22.2 mph 22.2 mph 77 % 0.0 in 0.0 W/m2 CLR
23:11 2.8 °F -0.8 °F 1016.8 in NNW 22.2 mph 22.2 mph 77 % 0.0 in 0.0 W/m2 CLR
23:16 2.8 °F -0.8 °F 1016.8 in North 25.9 mph 25.9 mph 77 % 0.0 in 0.0 W/m2 CLR
23:21 2.8 °F -0.8 °F 1016.8 in North 22.5 mph 22.5 mph 77 % 0.0 in 0.0 W/m2 CLR
23:26 2.8 °F -1.1 °F 1016.8 in North 22.2 mph 22.2 mph 76 % 0.0 in 0.0 W/m2 CLR
23:31 2.8 °F -0.8 °F 1016.8 in North 31.5 mph 31.5 mph 77 % 0.0 in 0.0 W/m2 CLR
23:36 2.8 °F -0.8 °F 1016.8 in NNW 31.5 mph 31.5 mph 77 % 0.0 in 0.0 W/m2 CLR
23:41 2.8 °F -0.8 °F 1017.2 in North 37.0 mph 37.0 mph 77 % 0.0 in 0.0 W/m2 CLR
23:46 2.8 °F -0.8 °F 1017.2 in NNW 24.1 mph 24.1 mph 77 % 0.0 in 0.0 W/m2 CLR
23:51 2.8 °F -0.7 °F 1017.2 in North 31.5 mph 31.5 mph 78 % 0.0 in 0.0 W/m2 CLR
23:56 2.8 °F -0.7 °F 1017.2 in North 24.1 mph 24.1 mph 78 % 0.0 in 0.0 W/m2 CLR
Lo Temps de Massalio
Compliments of Weather Underground - 1.25 mb